createdAt,value
2022-08-19T00:01:59.305Z,6.70
2022-08-19T00:04:30.664Z,6.07
2022-08-19T00:07:00.853Z,6.22
2022-08-19T00:09:31.876Z,6.50
2022-08-19T00:12:00.876Z,6.97
2022-08-19T00:14:32.967Z,6.40
2022-08-19T00:17:02.336Z,6.22
2022-08-19T00:19:31.295Z,6.68
2022-08-19T00:22:01.386Z,6.95
2022-08-19T00:24:29.905Z,6.20
2022-08-19T00:27:25.070Z,6.32
2022-08-19T00:29:52.282Z,7.30
2022-08-19T00:32:22.093Z,6.57
2022-08-19T00:34:50.407Z,6.45
2022-08-19T00:37:20.387Z,6.80
2022-08-19T00:39:49.222Z,6.80
2022-08-19T00:44:46.121Z,6.60
2022-08-19T00:47:14.552Z,6.88
2022-08-19T00:49:51.786Z,6.40
2022-08-19T00:52:25.071Z,6.55
2022-08-19T00:54:54.084Z,6.43
2022-08-19T00:57:28.216Z,6.75
2022-08-19T01:00:02.220Z,7.28
2022-08-19T01:02:32.996Z,6.78
2022-08-19T01:05:02.592Z,6.95
2022-08-19T01:07:35.707Z,6.85
2022-08-19T01:10:09.225Z,6.15
2022-08-19T01:12:37.628Z,6.93
2022-08-19T01:15:06.857Z,6.45
2022-08-19T01:17:36.257Z,7.03
2022-08-19T01:20:06.010Z,6.93
2022-08-19T01:22:40.959Z,7.00
2022-08-19T01:25:15.153Z,6.53
2022-08-19T01:27:45.852Z,7.65
2022-08-19T01:30:17.435Z,6.97
2022-08-19T01:32:45.936Z,6.65
2022-08-19T01:35:15.938Z,6.97
2022-08-19T01:37:48.517Z,7.13
2022-08-19T01:40:17.281Z,7.80
2022-08-19T01:42:45.693Z,7.30
2022-08-19T01:45:14.293Z,6.93
2022-08-19T01:47:43.564Z,7.20
2022-08-19T01:53:01.240Z,6.90
2022-08-19T01:55:32.371Z,7.20
2022-08-19T01:58:04.510Z,7.20
2022-08-19T02:00:34.180Z,7.93
2022-08-19T02:03:02.964Z,7.32
2022-08-19T02:05:32.222Z,7.80
2022-08-19T02:08:01.889Z,7.88
2022-08-19T02:10:30.513Z,7.97
2022-08-19T02:12:58.864Z,7.60
2022-08-19T02:15:28.750Z,7.95
2022-08-19T02:17:56.998Z,7.28
2022-08-19T02:20:25.426Z,8.02
2022-08-19T02:22:54.002Z,8.02
2022-08-19T02:25:23.715Z,8.32
2022-08-19T02:27:52.028Z,8.18
2022-08-19T02:30:20.929Z,8.20
2022-08-19T02:32:49.421Z,8.73
2022-08-19T02:35:18.011Z,8.80
2022-08-19T02:38:04.602Z,8.00
2022-08-19T02:40:36.026Z,8.50
2022-08-19T02:43:04.715Z,8.10
2022-08-19T02:45:34.474Z,8.18
2022-08-19T02:48:03.440Z,8.93
2022-08-19T02:50:41.265Z,9.10
2022-08-19T02:53:23.212Z,9.10
2022-08-19T02:55:53.273Z,9.07
2022-08-19T02:58:23.963Z,8.48
2022-08-19T03:00:56.678Z,8.88
2022-08-19T03:03:25.643Z,9.05
2022-08-19T03:05:56.949Z,9.98
2022-08-19T03:08:26.905Z,9.07
2022-08-19T03:10:56.744Z,9.50
2022-08-19T03:13:25.523Z,8.75
2022-08-19T03:15:53.793Z,10.00
2022-08-19T03:18:23.245Z,10.13
2022-08-19T03:20:55.639Z,9.57
2022-08-19T03:23:24.912Z,9.35
2022-08-19T03:25:58.404Z,9.32
2022-08-19T03:28:35.218Z,8.75
2022-08-19T03:31:05.992Z,9.32
2022-08-19T03:33:54.411Z,8.98
2022-08-19T03:36:25.645Z,9.77
2022-08-19T03:38:59.498Z,8.55
2022-08-19T03:41:44.194Z,9.20
2022-08-19T03:44:19.251Z,9.85
2022-08-19T03:46:50.202Z,9.65
2022-08-19T03:49:19.787Z,8.88
2022-08-19T03:51:49.503Z,9.02
2022-08-19T03:54:19.890Z,9.45
2022-08-19T03:56:51.381Z,8.60
2022-08-19T03:59:22.890Z,8.60
2022-08-19T04:01:51.164Z,9.32
2022-08-19T04:04:20.114Z,8.25
2022-08-19T04:06:49.024Z,9.18
2022-08-19T04:09:17.696Z,8.70
2022-08-19T04:11:51.362Z,9.55
2022-08-19T04:14:22.999Z,9.48
2022-08-19T04:16:52.164Z,9.45
2022-08-19T04:21:52.275Z,11.77
2022-08-19T04:24:21.408Z,12.40
2022-08-19T04:26:50.262Z,12.60
2022-08-19T04:29:23.289Z,12.63
2022-08-19T04:31:51.988Z,12.02
2022-08-19T04:34:23.616Z,11.60
2022-08-19T04:36:53.165Z,11.10
2022-08-19T04:39:44.662Z,11.57
2022-08-19T04:42:39.357Z,12.63
2022-08-19T04:45:12.358Z,14.52
2022-08-19T04:47:48.106Z,14.63
2022-08-19T04:50:27.410Z,13.50
2022-08-19T04:52:57.424Z,13.55
2022-08-19T04:55:26.811Z,13.73
2022-08-19T04:57:55.363Z,13.90
2022-08-19T05:00:25.344Z,13.73
2022-08-19T05:02:55.581Z,13.63
2022-08-19T05:05:23.930Z,14.10
2022-08-19T05:07:52.305Z,13.82
2022-08-19T05:10:21.637Z,12.50
2022-08-19T05:12:49.961Z,12.80
2022-08-19T05:15:18.299Z,12.70
2022-08-19T05:18:01.880Z,12.32
2022-08-19T05:20:47.927Z,11.82
2022-08-19T05:23:21.932Z,11.98
2022-08-19T05:25:51.400Z,12.38
2022-08-19T05:28:20.620Z,12.23
2022-08-19T05:30:49.254Z,12.35
2022-08-19T05:33:19.077Z,11.77
2022-08-19T05:35:49.435Z,12.77
2022-08-19T05:45:34.109Z,12.38
2022-08-19T05:48:02.377Z,12.98
2022-08-19T05:50:31.980Z,14.57
2022-08-19T05:53:00.135Z,15.32
2022-08-19T05:55:28.367Z,14.97
2022-08-19T05:57:56.574Z,15.30
2022-08-19T06:00:25.289Z,13.93
2022-08-19T06:02:55.747Z,13.82
2022-08-19T06:05:24.212Z,13.85
2022-08-19T06:07:54.496Z,14.45
2022-08-19T06:10:23.242Z,13.63
2022-08-19T06:12:51.484Z,14.27
2022-08-19T06:15:20.046Z,13.68
2022-08-19T06:17:48.354Z,14.20
2022-08-19T06:20:34.391Z,12.57
2022-08-19T06:23:09.403Z,13.57
2022-08-19T06:25:38.589Z,13.07
2022-08-19T06:28:15.293Z,13.15
2022-08-19T06:30:43.991Z,12.77
2022-08-19T06:33:12.407Z,12.60
2022-08-19T06:35:41.494Z,12.65
2022-08-19T06:38:11.309Z,11.73
2022-08-19T06:40:39.904Z,12.20
2022-08-19T06:43:09.484Z,10.80
2022-08-19T06:45:39.827Z,10.90
2022-08-19T06:48:08.507Z,10.98
2022-08-19T06:50:39.439Z,10.90
2022-08-19T06:53:08.180Z,10.13
2022-08-19T06:55:38.664Z,10.52
2022-08-19T06:58:07.405Z,10.80
2022-08-19T07:00:35.936Z,10.25
2022-08-19T07:03:07.738Z,10.77
2022-08-19T07:05:41.389Z,10.27
2022-08-19T07:08:14.798Z,9.50
2022-08-19T07:10:46.952Z,9.05
2022-08-19T07:13:15.694Z,9.05
2022-08-19T07:15:44.222Z,9.48
2022-08-19T07:18:12.503Z,8.15
2022-08-19T07:20:41.992Z,8.50
2022-08-19T07:23:16.627Z,8.38
2022-08-19T07:25:53.163Z,8.40
2022-08-19T07:28:24.303Z,7.53
2022-08-19T07:30:53.834Z,7.07
2022-08-19T07:33:22.298Z,7.57
2022-08-19T07:35:50.957Z,7.53
2022-08-19T07:38:19.463Z,7.97
2022-08-19T07:40:49.133Z,6.90
2022-08-19T07:43:18.637Z,7.20
2022-08-19T07:45:48.544Z,6.90
2022-08-19T07:48:16.962Z,6.72
2022-08-19T07:50:45.593Z,7.05
2022-08-19T07:53:14.232Z,6.90
2022-08-19T07:55:44.051Z,6.32
2022-08-19T07:58:17.342Z,7.32
2022-08-19T08:00:48.553Z,6.78
2022-08-19T08:03:18.620Z,6.90
2022-08-19T08:06:05.088Z,7.45
2022-08-19T08:08:50.553Z,7.60
2022-08-19T08:11:23.878Z,7.20
2022-08-19T08:14:01.336Z,7.22
2022-08-19T08:16:33.655Z,7.32
2022-08-19T08:19:03.328Z,7.05
2022-08-19T08:21:36.163Z,8.00
2022-08-19T08:24:04.853Z,7.50
2022-08-19T08:26:34.438Z,7.75
2022-08-19T08:29:12.326Z,7.63
2022-08-19T08:31:42.883Z,7.28
2022-08-19T08:34:12.797Z,7.72
2022-08-19T08:36:42.971Z,6.93
2022-08-19T08:39:11.910Z,6.82
2022-08-19T08:41:49.153Z,7.65
2022-08-19T08:44:23.916Z,7.40
2022-08-19T08:46:58.355Z,7.80
2022-08-19T08:49:33.612Z,7.47
2022-08-19T08:52:06.689Z,7.55
2022-08-19T08:54:39.860Z,7.82
2022-08-19T08:57:15.872Z,7.47
2022-08-19T08:59:51.836Z,7.20
2022-08-19T09:02:20.798Z,7.57
2022-08-19T09:04:49.339Z,7.75
2022-08-19T09:07:35.407Z,7.63
2022-08-19T09:10:12.398Z,7.07
2022-08-19T09:12:51.030Z,7.70
2022-08-19T09:15:33.405Z,8.18
2022-08-19T09:18:04.548Z,8.32
2022-08-19T09:20:35.717Z,7.65
2022-08-19T09:23:05.610Z,7.70
2022-08-19T09:25:35.629Z,8.40
2022-08-19T09:28:05.593Z,8.10
2022-08-19T09:30:41.368Z,8.13
2022-08-19T09:33:09.855Z,7.40
2022-08-19T09:35:50.094Z,7.40
2022-08-19T09:38:22.430Z,7.30
2022-08-19T09:40:51.378Z,7.90
2022-08-19T09:46:11.065Z,6.80
2022-08-19T09:48:39.917Z,6.65
2022-08-19T09:51:11.896Z,6.68
2022-08-19T09:53:42.432Z,6.50
2022-08-19T09:56:10.900Z,5.95
2022-08-19T09:58:40.388Z,5.40
2022-08-19T10:01:11.371Z,5.05
2022-08-19T10:03:39.656Z,5.10
2022-08-19T10:06:14.920Z,5.20
2022-08-19T10:08:50.353Z,4.78
2022-08-19T10:11:28.747Z,4.82
2022-08-19T10:14:09.126Z,4.28
2022-08-19T10:19:08.638Z,4.63
2022-08-19T10:21:37.378Z,4.60
2022-08-19T10:24:09.413Z,4.40
2022-08-19T10:26:40.354Z,4.13
2022-08-19T10:29:09.138Z,4.50
2022-08-19T10:34:28.618Z,3.85
2022-08-19T10:37:01.266Z,4.30
2022-08-19T10:39:32.719Z,4.15
2022-08-19T10:44:37.526Z,4.30
2022-08-19T10:47:17.150Z,4.63
2022-08-19T10:50:12.502Z,4.47
2022-08-19T10:52:48.838Z,4.28
2022-08-19T10:55:36.323Z,4.20
2022-08-19T10:58:04.914Z,4.55
2022-08-19T11:00:33.476Z,4.95
2022-08-19T11:03:01.823Z,5.00
2022-08-19T11:05:31.499Z,4.70
2022-08-19T11:08:22.419Z,4.78
2022-08-19T11:10:54.674Z,5.55
2022-08-19T11:13:24.344Z,6.00
2022-08-19T11:16:03.839Z,5.32
2022-08-19T11:18:35.258Z,5.68
2022-08-19T11:21:18.598Z,5.93
2022-08-19T11:23:48.295Z,5.70
2022-08-19T11:26:17.404Z,5.70
2022-08-19T11:28:46.145Z,5.63
2022-08-19T11:31:16.408Z,5.43
2022-08-19T11:33:47.586Z,4.97
2022-08-19T11:36:18.420Z,5.32
2022-08-19T11:38:49.336Z,5.63
2022-08-19T11:41:20.102Z,5.45
2022-08-19T11:43:48.605Z,5.50
2022-08-19T11:46:19.416Z,5.88
2022-08-19T11:48:50.821Z,6.57
2022-08-19T11:51:25.763Z,5.47
2022-08-19T11:53:55.256Z,6.13
2022-08-19T11:56:25.155Z,6.13
2022-08-19T11:58:54.416Z,5.65
2022-08-19T12:01:25.693Z,5.57
2022-08-19T12:03:56.307Z,5.53
2022-08-19T12:06:29.494Z,5.75
2022-08-19T12:08:58.256Z,5.72
2022-08-19T12:11:26.971Z,5.43
2022-08-19T12:13:56.236Z,5.60
2022-08-19T12:16:28.330Z,5.50
2022-08-19T12:18:58.935Z,5.50
2022-08-19T12:21:30.315Z,5.70
2022-08-19T12:24:00.497Z,5.63
2022-08-19T12:26:32.567Z,5.50
2022-08-19T12:29:01.594Z,5.40
2022-08-19T12:31:30.858Z,5.55
2022-08-19T12:33:59.830Z,5.30
2022-08-19T12:36:29.493Z,5.47
2022-08-19T12:39:00.288Z,5.38
2022-08-19T12:41:29.094Z,5.63
2022-08-19T12:43:57.401Z,5.10
2022-08-19T12:46:26.184Z,5.20
2022-08-19T12:48:56.124Z,4.72
2022-08-19T12:51:25.762Z,4.88
2022-08-19T12:53:55.436Z,5.40
2022-08-19T12:56:23.672Z,4.57
2022-08-19T12:58:53.073Z,4.63
2022-08-19T13:01:23.258Z,5.00
2022-08-19T13:03:53.292Z,5.30
2022-08-19T13:06:22.460Z,4.57
2022-08-19T13:11:22.017Z,4.40
2022-08-19T13:13:53.004Z,4.90
2022-08-19T13:16:23.110Z,5.05
2022-08-19T13:18:53.027Z,4.80
2022-08-19T13:21:23.902Z,4.60
2022-08-19T13:23:53.250Z,4.90
2022-08-19T13:26:23.449Z,4.50
2022-08-19T13:29:09.580Z,5.22
2022-08-19T13:31:58.770Z,5.28
2022-08-19T13:34:32.821Z,4.85
2022-08-19T13:37:04.007Z,5.30
2022-08-19T13:39:33.573Z,5.05
2022-08-19T13:42:07.280Z,4.88
2022-08-19T13:44:36.235Z,5.03
2022-08-19T13:47:08.104Z,5.25
2022-08-19T13:49:38.101Z,4.85
2022-08-19T13:52:07.394Z,5.07
2022-08-19T13:54:35.784Z,5.18
2022-08-19T13:57:05.828Z,5.28
2022-08-19T13:59:34.570Z,5.10
2022-08-19T14:02:03.499Z,4.80
2022-08-19T14:04:31.876Z,5.28
2022-08-19T14:07:00.107Z,5.03
2022-08-19T14:09:28.423Z,4.90
2022-08-19T14:11:56.822Z,5.13
2022-08-19T14:14:26.456Z,5.30
2022-08-19T14:16:54.746Z,4.90
2022-08-19T14:19:23.347Z,4.85
2022-08-19T14:21:51.855Z,5.53
2022-08-19T14:24:20.147Z,5.13
2022-08-19T14:26:48.509Z,5.55
2022-08-19T14:29:17.156Z,5.33
2022-08-19T14:31:47.309Z,5.40
2022-08-19T14:34:15.690Z,4.93
2022-08-19T14:36:43.961Z,5.53
2022-08-19T14:39:14.391Z,5.05
2022-08-19T14:41:43.774Z,4.75
2022-08-19T14:44:13.548Z,5.15
2022-08-19T14:46:46.505Z,4.97
2022-08-19T14:49:19.571Z,5.03
2022-08-19T14:51:48.734Z,5.22
2022-08-19T14:54:17.089Z,4.80
2022-08-19T14:56:45.351Z,5.40
2022-08-19T14:59:13.733Z,4.30
2022-08-19T15:01:42.317Z,4.50
2022-08-19T15:04:10.923Z,3.53
2022-08-19T15:06:40.754Z,3.33
2022-08-19T15:09:09.086Z,2.80
2022-08-19T15:11:38.202Z,1.90
2022-08-19T15:16:36.484Z,1.33
2022-08-19T15:19:04.816Z,1.70
2022-08-19T15:21:33.479Z,3.20
2022-08-19T15:24:03.476Z,3.97
2022-08-19T15:26:33.420Z,3.45
2022-08-19T15:29:02.394Z,3.75
2022-08-19T15:31:38.334Z,3.30
2022-08-19T15:34:07.829Z,2.92
2022-08-19T15:36:36.623Z,2.97
2022-08-19T15:39:07.438Z,2.45
2022-08-19T15:41:37.026Z,2.20
2022-08-19T15:44:09.157Z,2.60
2022-08-19T15:46:41.445Z,2.35
2022-08-19T15:49:12.755Z,2.10
2022-08-19T15:51:43.279Z,1.90
2022-08-19T15:54:16.704Z,2.30
2022-08-19T15:57:01.827Z,2.25
2022-08-19T15:59:48.103Z,2.42
2022-08-19T16:02:37.421Z,2.50
2022-08-19T16:05:25.424Z,2.60
2022-08-19T16:07:54.483Z,2.50
2022-08-19T16:10:26.991Z,2.90
2022-08-19T16:12:57.090Z,2.63
2022-08-19T16:15:27.477Z,2.70
2022-08-19T16:17:57.529Z,2.58
2022-08-19T16:20:28.106Z,2.85
2022-08-19T16:22:58.591Z,2.97
2022-08-19T16:25:30.129Z,2.90
2022-08-19T16:28:07.147Z,2.63
2022-08-19T16:30:38.708Z,2.83
2022-08-19T16:33:07.783Z,3.00
2022-08-19T16:38:04.787Z,3.30
2022-08-19T16:40:35.653Z,3.33
2022-08-19T16:43:04.559Z,3.00
2022-08-19T16:45:33.156Z,3.35
2022-08-19T16:48:01.518Z,3.25
2022-08-19T16:50:48.250Z,3.50
2022-08-19T16:53:19.112Z,3.60
2022-08-19T16:55:57.413Z,3.45
2022-08-19T16:58:29.270Z,3.80
2022-08-19T17:01:03.239Z,3.20
2022-08-19T17:03:36.322Z,3.30
2022-08-19T17:06:18.412Z,3.28
2022-08-19T17:08:50.168Z,2.97
2022-08-19T17:11:21.373Z,3.50
2022-08-19T17:13:50.996Z,3.15
2022-08-19T17:16:22.264Z,3.17
2022-08-19T17:18:52.956Z,3.10
2022-08-19T17:21:21.760Z,3.20
2022-08-19T17:23:50.608Z,3.53
2022-08-19T17:26:20.292Z,3.15
2022-08-19T17:28:50.284Z,3.63
2022-08-19T17:31:20.295Z,3.50
2022-08-19T17:33:49.128Z,3.38
2022-08-19T17:36:18.034Z,3.40
2022-08-19T17:38:46.742Z,3.63
2022-08-19T17:41:15.319Z,4.13
2022-08-19T17:43:45.237Z,4.30
2022-08-19T17:46:17.708Z,5.03
2022-08-19T17:48:52.676Z,6.45
2022-08-19T17:51:23.804Z,8.40
2022-08-19T17:53:54.571Z,9.90
2022-08-19T17:56:23.712Z,11.10
2022-08-19T18:01:43.902Z,13.13
2022-08-19T18:04:19.916Z,13.13
2022-08-19T18:06:52.992Z,11.95
2022-08-19T18:09:24.366Z,11.02
2022-08-19T18:11:54.998Z,11.43
2022-08-19T18:14:32.998Z,11.27
2022-08-19T18:17:05.647Z,10.68
2022-08-19T18:19:42.076Z,12.35
2022-08-19T18:22:25.123Z,12.68
2022-08-19T18:24:54.059Z,14.15
2022-08-19T18:27:22.580Z,14.55
2022-08-19T18:29:52.437Z,15.40
2022-08-19T18:32:24.040Z,14.30
2022-08-19T18:34:53.932Z,14.60
2022-08-19T18:37:22.349Z,15.85
2022-08-19T18:40:13.405Z,15.35
2022-08-19T18:43:01.757Z,15.38
2022-08-19T18:45:48.841Z,14.18
2022-08-19T18:48:34.905Z,15.18
2022-08-19T18:51:03.721Z,15.48
2022-08-19T18:53:34.914Z,15.30
2022-08-19T18:56:03.861Z,14.15
2022-08-19T18:58:34.895Z,12.93
2022-08-19T19:01:10.960Z,11.35
2022-08-19T19:03:41.496Z,10.65
2022-08-19T19:06:10.242Z,10.57
2022-08-19T19:08:38.964Z,9.20
2022-08-19T19:11:07.389Z,8.95
2022-08-19T19:13:37.574Z,8.02
2022-08-19T19:16:09.059Z,8.25
2022-08-19T19:18:37.489Z,8.50
2022-08-19T19:21:06.375Z,8.10
2022-08-19T19:23:34.680Z,8.20
2022-08-19T19:26:02.985Z,7.03
2022-08-19T19:28:31.421Z,7.30
2022-08-19T19:30:59.711Z,7.20
2022-08-19T19:33:29.553Z,6.30
2022-08-19T19:35:57.885Z,6.90
2022-08-19T19:38:26.287Z,7.10
2022-08-19T19:40:54.654Z,7.37
2022-08-19T19:43:22.985Z,7.15
2022-08-19T19:45:52.215Z,8.35
2022-08-19T19:50:53.920Z,7.78
2022-08-19T19:53:22.906Z,7.80
2022-08-19T19:55:54.922Z,8.05
2022-08-19T19:58:28.824Z,7.75
2022-08-19T20:00:58.975Z,8.80
2022-08-19T20:03:27.653Z,8.05
2022-08-19T20:06:00.408Z,7.07
2022-08-19T20:08:46.634Z,8.27
2022-08-19T20:11:26.063Z,7.82
2022-08-19T20:13:54.326Z,7.10
2022-08-19T20:16:25.498Z,7.07
2022-08-19T20:18:55.752Z,7.45
2022-08-19T20:21:31.495Z,6.93
2022-08-19T20:24:09.080Z,6.53
2022-08-19T20:26:38.873Z,7.28
2022-08-19T20:29:13.688Z,6.60
2022-08-19T20:31:59.189Z,6.35
2022-08-19T20:34:29.089Z,6.22
2022-08-19T20:36:58.796Z,5.40
2022-08-19T20:39:27.262Z,5.93
2022-08-19T20:41:56.513Z,5.85
2022-08-19T20:44:25.953Z,5.05
2022-08-19T20:46:56.757Z,5.03
2022-08-19T20:49:27.715Z,5.43
2022-08-19T20:51:58.562Z,5.07
2022-08-19T20:54:27.290Z,4.43
2022-08-19T20:56:56.194Z,5.25
2022-08-19T20:59:25.940Z,5.88
2022-08-19T21:01:54.682Z,5.03
2022-08-19T21:04:23.266Z,4.82
2022-08-19T21:06:52.033Z,4.90
2022-08-19T21:09:22.385Z,4.90
2022-08-19T21:11:51.814Z,5.07
2022-08-19T21:14:20.243Z,5.75
2022-08-19T21:16:49.387Z,6.45
2022-08-19T21:19:21.999Z,6.70
2022-08-19T21:21:52.485Z,6.95
2022-08-19T21:24:22.191Z,6.65
2022-08-19T21:29:27.870Z,7.93
2022-08-19T21:31:56.120Z,8.00
2022-08-19T21:34:24.479Z,7.70
2022-08-19T21:36:52.819Z,7.40
2022-08-19T21:39:22.564Z,7.53
2022-08-19T21:41:50.879Z,6.78
2022-08-19T21:44:19.276Z,6.88
2022-08-19T21:46:50.426Z,6.03
2022-08-19T21:49:19.705Z,6.80
2022-08-19T21:51:48.031Z,5.95
2022-08-19T21:54:16.409Z,5.88
2022-08-19T21:56:47.242Z,5.23
2022-08-19T21:59:15.715Z,5.03
2022-08-19T22:01:48.841Z,5.10
2022-08-19T22:04:20.696Z,5.00
2022-08-19T22:06:49.195Z,4.63
2022-08-19T22:09:17.490Z,4.05
2022-08-19T22:11:47.196Z,4.10
2022-08-19T22:14:15.567Z,4.13
2022-08-19T22:16:43.829Z,4.00
2022-08-19T22:19:12.945Z,3.70
2022-08-19T22:24:10.617Z,3.88
2022-08-19T22:26:39.031Z,4.32
2022-08-19T22:29:08.888Z,4.70
2022-08-19T22:31:37.732Z,4.53
2022-08-19T22:34:07.162Z,5.40
2022-08-19T22:36:35.726Z,5.13
2022-08-19T22:39:04.908Z,6.32
2022-08-19T22:41:33.854Z,7.15
2022-08-19T22:44:02.423Z,6.45
2022-08-19T22:46:34.303Z,6.97
2022-08-19T22:49:02.682Z,6.88
2022-08-19T22:52:03.472Z,6.82
2022-08-19T22:54:31.796Z,7.80
2022-08-19T22:57:00.227Z,6.50
2022-08-19T22:59:28.472Z,6.85
2022-08-19T23:01:58.271Z,7.13
2022-08-19T23:04:26.525Z,6.90
2022-08-19T23:06:54.877Z,6.47
2022-08-19T23:09:23.444Z,6.40
2022-08-19T23:11:52.044Z,6.72
2022-08-19T23:14:20.328Z,6.53
2022-08-19T23:16:51.352Z,6.20
2022-08-19T23:19:21.901Z,6.43
2022-08-19T23:21:50.805Z,6.22
2022-08-19T23:24:19.190Z,6.57
2022-08-19T23:27:01.476Z,6.45
2022-08-19T23:29:48.545Z,6.30
2022-08-19T23:32:17.629Z,6.75
2022-08-19T23:34:47.804Z,5.95
2022-08-19T23:37:16.428Z,6.40
2022-08-19T23:39:45.375Z,6.65
2022-08-19T23:42:14.121Z,6.78
2022-08-19T23:44:51.547Z,6.80
2022-08-19T23:47:21.077Z,6.90
2022-08-19T23:49:51.269Z,7.00
2022-08-19T23:52:19.908Z,6.47
2022-08-19T23:54:48.203Z,7.20
2022-08-19T23:57:16.524Z,6.85
2022-08-19T23:59:45.923Z,6.90
